sensor_id;sensor_type;location;lat;lon;timestamp;P1;durP1;ratioP1;P2;durP2;ratioP2
67712;SDS011;67640;55.784;49.138;2024-02-16T00:04:20;4.53;;;1.30;;
67712;SDS011;67640;55.784;49.138;2024-02-16T00:09:40;1.70;;;0.80;;
67712;SDS011;67640;55.784;49.138;2024-02-16T00:15:00;2.05;;;0.80;;
67712;SDS011;67640;55.784;49.138;2024-02-16T00:20:20;4.00;;;1.20;;
67712;SDS011;67640;55.784;49.138;2024-02-16T00:25:40;2.13;;;0.73;;
67712;SDS011;67640;55.784;49.138;2024-02-16T00:30:46;2.58;;;0.80;;
67712;SDS011;67640;55.784;49.138;2024-02-16T00:35:51;3.70;;;1.00;;
67712;SDS011;67640;55.784;49.138;2024-02-16T00:46:36;2.72;;;0.85;;
67712;SDS011;67640;55.784;49.138;2024-02-16T00:51:56;4.40;;;1.43;;
67712;SDS011;67640;55.784;49.138;2024-02-16T00:57:16;16.90;;;1.10;;
67712;SDS011;67640;55.784;49.138;2024-02-16T01:02:21;3.10;;;0.40;;
67712;SDS011;67640;55.784;49.138;2024-02-16T01:07:41;0.70;;;0.30;;
67712;SDS011;67640;55.784;49.138;2024-02-16T01:13:02;0.72;;;0.40;;
67712;SDS011;67640;55.784;49.138;2024-02-16T01:18:08;1.92;;;0.68;;
67712;SDS011;67640;55.784;49.138;2024-02-16T01:23:29;0.90;;;0.37;;
67712;SDS011;67640;55.784;49.138;2024-02-16T01:28:49;1.50;;;0.95;;
67712;SDS011;67640;55.784;49.138;2024-02-16T01:34:09;1.10;;;0.50;;
67712;SDS011;67640;55.784;49.138;2024-02-16T01:39:29;0.33;;;0.25;;
67712;SDS011;67640;55.784;49.138;2024-02-16T01:44:34;3.08;;;0.70;;
67712;SDS011;67640;55.784;49.138;2024-02-16T01:49:41;5.37;;;1.90;;
67712;SDS011;67640;55.784;49.138;2024-02-16T01:54:56;4.80;;;0.80;;
67712;SDS011;67640;55.784;49.138;2024-02-16T02:00:03;1.50;;;0.28;;
67712;SDS011;67640;55.784;49.138;2024-02-16T02:05:23;5.80;;;2.60;;
67712;SDS011;67640;55.784;49.138;2024-02-16T02:10:42;3.20;;;0.75;;
67712;SDS011;67640;55.784;49.138;2024-02-16T02:15:48;0.77;;;0.30;;
67712;SDS011;67640;55.784;49.138;2024-02-16T02:21:08;2.15;;;0.57;;
67712;SDS011;67640;55.784;49.138;2024-02-16T02:26:30;6.90;;;1.10;;
67712;SDS011;67640;55.784;49.138;2024-02-16T02:31:49;1.27;;;0.30;;
67712;SDS011;67640;55.784;49.138;2024-02-16T02:37:09;2.22;;;0.80;;
67712;SDS011;67640;55.784;49.138;2024-02-16T02:42:29;0.50;;;0.30;;
67712;SDS011;67640;55.784;49.138;2024-02-16T02:47:48;1.10;;;0.42;;
67712;SDS011;67640;55.784;49.138;2024-02-16T02:52:54;3.02;;;1.20;;
67712;SDS011;67640;55.784;49.138;2024-02-16T02:58:14;1.17;;;0.40;;
67712;SDS011;67640;55.784;49.138;2024-02-16T03:03:20;2.17;;;0.77;;
67712;SDS011;67640;55.784;49.138;2024-02-16T03:08:25;4.17;;;1.15;;
67712;SDS011;67640;55.784;49.138;2024-02-16T03:13:45;1.70;;;0.50;;
67712;SDS011;67640;55.784;49.138;2024-02-16T03:19:05;1.15;;;0.33;;
67712;SDS011;67640;55.784;49.138;2024-02-16T03:24:25;1.32;;;0.42;;
67712;SDS011;67640;55.784;49.138;2024-02-16T03:29:32;1.73;;;0.70;;
67712;SDS011;67640;55.784;49.138;2024-02-16T03:34:38;2.92;;;0.65;;
67712;SDS011;67640;55.784;49.138;2024-02-16T03:39:43;2.73;;;0.93;;
67712;SDS011;67640;55.784;49.138;2024-02-16T03:45:03;2.20;;;1.05;;
67712;SDS011;67640;55.784;49.138;2024-02-16T03:50:21;1.85;;;0.53;;
67712;SDS011;67640;55.784;49.138;2024-02-16T03:55:27;0.73;;;0.50;;
67712;SDS011;67640;55.784;49.138;2024-02-16T04:00:47;1.45;;;0.65;;
67712;SDS011;67640;55.784;49.138;2024-02-16T04:05:53;1.32;;;0.60;;
67712;SDS011;67640;55.784;49.138;2024-02-16T04:11:12;3.20;;;0.83;;
67712;SDS011;67640;55.784;49.138;2024-02-16T04:16:32;1.57;;;0.45;;
67712;SDS011;67640;55.784;49.138;2024-02-16T04:21:37;2.10;;;0.67;;
67712;SDS011;67640;55.784;49.138;2024-02-16T04:26:44;9.80;;;1.32;;
67712;SDS011;67640;55.784;49.138;2024-02-16T04:31:50;1.00;;;0.45;;
67712;SDS011;67640;55.784;49.138;2024-02-16T04:37:10;6.35;;;2.22;;
67712;SDS011;67640;55.784;49.138;2024-02-16T04:42:16;3.03;;;0.60;;
67712;SDS011;67640;55.784;49.138;2024-02-16T04:47:36;5.03;;;0.93;;
67712;SDS011;67640;55.784;49.138;2024-02-16T04:52:55;1.90;;;0.73;;
67712;SDS011;67640;55.784;49.138;2024-02-16T04:58:15;4.03;;;0.80;;
67712;SDS011;67640;55.784;49.138;2024-02-16T05:03:35;4.92;;;0.90;;
67712;SDS011;67640;55.784;49.138;2024-02-16T05:08:41;4.67;;;1.20;;
67712;SDS011;67640;55.784;49.138;2024-02-16T05:13:47;4.40;;;1.12;;
67712;SDS011;67640;55.784;49.138;2024-02-16T05:24:34;2.52;;;1.30;;
67712;SDS011;67640;55.784;49.138;2024-02-16T05:29:53;1.35;;;0.57;;
67712;SDS011;67640;55.784;49.138;2024-02-16T05:34:58;1.33;;;0.40;;
67712;SDS011;67640;55.784;49.138;2024-02-16T05:40:17;1.10;;;0.53;;
67712;SDS011;67640;55.784;49.138;2024-02-16T05:45:24;2.67;;;0.78;;
67712;SDS011;67640;55.784;49.138;2024-02-16T05:50:30;2.60;;;0.90;;
67712;SDS011;67640;55.784;49.138;2024-02-16T05:55:50;3.35;;;1.07;;
67712;SDS011;67640;55.784;49.138;2024-02-16T06:01:09;3.73;;;1.47;;
67712;SDS011;67640;55.784;49.138;2024-02-16T06:06:29;1.37;;;0.57;;
67712;SDS011;67640;55.784;49.138;2024-02-16T06:17:14;5.40;;;1.45;;
67712;SDS011;67640;55.784;49.138;2024-02-16T06:22:20;4.03;;;1.13;;
67712;SDS011;67640;55.784;49.138;2024-02-16T06:27:39;1.65;;;0.72;;
67712;SDS011;67640;55.784;49.138;2024-02-16T06:32:44;5.28;;;1.05;;
67712;SDS011;67640;55.784;49.138;2024-02-16T06:37:51;4.47;;;1.03;;
67712;SDS011;67640;55.784;49.138;2024-02-16T06:42:56;3.05;;;0.78;;
67712;SDS011;67640;55.784;49.138;2024-02-16T06:48:16;1.83;;;0.73;;
67712;SDS011;67640;55.784;49.138;2024-02-16T06:53:36;4.72;;;0.88;;
67712;SDS011;67640;55.784;49.138;2024-02-16T06:58:55;1.85;;;1.10;;
67712;SDS011;67640;55.784;49.138;2024-02-16T07:04:01;2.10;;;0.80;;
67712;SDS011;67640;55.784;49.138;2024-02-16T07:09:20;4.83;;;1.07;;
67712;SDS011;67640;55.784;49.138;2024-02-16T07:14:26;1.55;;;0.88;;
67712;SDS011;67640;55.784;49.138;2024-02-16T07:19:46;1.57;;;0.50;;
67712;SDS011;67640;55.784;49.138;2024-02-16T07:25:06;2.08;;;0.70;;
67712;SDS011;67640;55.784;49.138;2024-02-16T07:30:26;5.97;;;2.30;;
67712;SDS011;67640;55.784;49.138;2024-02-16T07:35:46;9.13;;;2.17;;
67712;SDS011;67640;55.784;49.138;2024-02-16T07:40:51;5.95;;;1.77;;
67712;SDS011;67640;55.784;49.138;2024-02-16T07:45:58;3.60;;;0.53;;
67712;SDS011;67640;55.784;49.138;2024-02-16T07:51:04;4.92;;;1.55;;
67712;SDS011;67640;55.784;49.138;2024-02-16T07:56:23;5.70;;;1.67;;
67712;SDS011;67640;55.784;49.138;2024-02-16T08:01:44;7.47;;;1.60;;
67712;SDS011;67640;55.784;49.138;2024-02-16T08:07:02;4.83;;;1.65;;
67712;SDS011;67640;55.784;49.138;2024-02-16T08:12:08;6.55;;;1.70;;
67712;SDS011;67640;55.784;49.138;2024-02-16T08:17:28;5.47;;;1.23;;
67712;SDS011;67640;55.784;49.138;2024-02-16T08:22:48;5.08;;;1.87;;
67712;SDS011;67640;55.784;49.138;2024-02-16T08:28:07;5.80;;;1.02;;
67712;SDS011;67640;55.784;49.138;2024-02-16T08:33:27;3.50;;;1.62;;
67712;SDS011;67640;55.784;49.138;2024-02-16T08:38:33;4.17;;;1.12;;
67712;SDS011;67640;55.784;49.138;2024-02-16T08:43:52;4.13;;;1.47;;
67712;SDS011;67640;55.784;49.138;2024-02-16T08:49:12;4.28;;;1.45;;
67712;SDS011;67640;55.784;49.138;2024-02-16T08:54:48;6.83;;;2.08;;
67712;SDS011;67640;55.784;49.138;2024-02-16T08:59:54;8.17;;;2.10;;
67712;SDS011;67640;55.784;49.138;2024-02-16T09:05:00;3.98;;;1.20;;
67712;SDS011;67640;55.784;49.138;2024-02-16T09:10:19;5.42;;;1.42;;
67712;SDS011;67640;55.784;49.138;2024-02-16T09:15:39;10.80;;;1.90;;
67712;SDS011;67640;55.784;49.138;2024-02-16T09:20:44;7.55;;;1.80;;
67712;SDS011;67640;55.784;49.138;2024-02-16T09:26:04;3.60;;;1.70;;
67712;SDS011;67640;55.784;49.138;2024-02-16T09:31:14;3.62;;;1.27;;
67712;SDS011;67640;55.784;49.138;2024-02-16T09:36:29;4.70;;;1.80;;
67712;SDS011;67640;55.784;49.138;2024-02-16T09:41:34;5.92;;;2.15;;
67712;SDS011;67640;55.784;49.138;2024-02-16T09:46:55;15.53;;;2.53;;
67712;SDS011;67640;55.784;49.138;2024-02-16T09:52:02;6.30;;;1.72;;
67712;SDS011;67640;55.784;49.138;2024-02-16T09:57:07;5.67;;;2.02;;
67712;SDS011;67640;55.784;49.138;2024-02-16T10:02:26;10.68;;;2.52;;
67712;SDS011;67640;55.784;49.138;2024-02-16T10:07:32;4.72;;;1.82;;
67712;SDS011;67640;55.784;49.138;2024-02-16T10:18:31;2.73;;;1.23;;
67712;SDS011;67640;55.784;49.138;2024-02-16T10:29:29;6.67;;;1.80;;
67712;SDS011;67640;55.784;49.138;2024-02-16T10:34:38;15.15;;;2.47;;
67712;SDS011;67640;55.784;49.138;2024-02-16T10:40:00;10.10;;;2.33;;
67712;SDS011;67640;55.784;49.138;2024-02-16T10:45:11;4.33;;;1.22;;
67712;SDS011;67640;55.784;49.138;2024-02-16T10:50:17;6.13;;;1.80;;
67712;SDS011;67640;55.784;49.138;2024-02-16T10:55:36;5.58;;;2.20;;
67712;SDS011;67640;55.784;49.138;2024-02-16T11:11:50;6.85;;;1.40;;
67712;SDS011;67640;55.784;49.138;2024-02-16T11:22:26;2.63;;;0.93;;
67712;SDS011;67640;55.784;49.138;2024-02-16T11:27:31;3.77;;;1.55;;
67712;SDS011;67640;55.784;49.138;2024-02-16T11:32:51;8.23;;;1.95;;
67712;SDS011;67640;55.784;49.138;2024-02-16T11:37:56;4.73;;;1.83;;
67712;SDS011;67640;55.784;49.138;2024-02-16T11:43:20;5.90;;;1.98;;
67712;SDS011;67640;55.784;49.138;2024-02-16T11:48:37;20.77;;;3.23;;
67712;SDS011;67640;55.784;49.138;2024-02-16T11:59:22;7.45;;;2.55;;
67712;SDS011;67640;55.784;49.138;2024-02-16T12:04:29;9.58;;;2.77;;
67712;SDS011;67640;55.784;49.138;2024-02-16T12:15:28;9.48;;;2.35;;
67712;SDS011;67640;55.784;49.138;2024-02-16T12:26:27;17.95;;;3.98;;
67712;SDS011;67640;55.784;49.138;2024-02-16T12:31:33;10.08;;;3.62;;
67712;SDS011;67640;55.784;49.138;2024-02-16T12:36:40;10.28;;;2.45;;
67712;SDS011;67640;55.784;49.138;2024-02-16T12:47:08;3.27;;;1.47;;
67712;SDS011;67640;55.784;49.138;2024-02-16T12:52:19;8.33;;;2.27;;
67712;SDS011;67640;55.784;49.138;2024-02-16T12:57:22;4.92;;;2.02;;
67712;SDS011;67640;55.784;49.138;2024-02-16T13:02:28;6.70;;;2.60;;
67712;SDS011;67640;55.784;49.138;2024-02-16T13:07:48;6.83;;;2.45;;
67712;SDS011;67640;55.784;49.138;2024-02-16T13:13:08;4.62;;;1.90;;
67712;SDS011;67640;55.784;49.138;2024-02-16T13:18:28;9.47;;;2.73;;
67712;SDS011;67640;55.784;49.138;2024-02-16T13:23:48;13.50;;;4.28;;
67712;SDS011;67640;55.784;49.138;2024-02-16T13:28:53;7.30;;;2.67;;
67712;SDS011;67640;55.784;49.138;2024-02-16T13:39:37;6.40;;;2.58;;
67712;SDS011;67640;55.784;49.138;2024-02-16T13:44:43;9.55;;;3.83;;
67712;SDS011;67640;55.784;49.138;2024-02-16T13:55:59;6.28;;;1.98;;
67712;SDS011;67640;55.784;49.138;2024-02-16T14:01:04;8.38;;;2.42;;
67712;SDS011;67640;55.784;49.138;2024-02-16T14:06:23;6.90;;;3.00;;
67712;SDS011;67640;55.784;49.138;2024-02-16T14:11:29;6.28;;;2.55;;
67712;SDS011;67640;55.784;49.138;2024-02-16T14:16:36;6.17;;;2.02;;
67712;SDS011;67640;55.784;49.138;2024-02-16T14:21:55;12.83;;;1.93;;
67712;SDS011;67640;55.784;49.138;2024-02-16T14:27:15;5.60;;;2.95;;
67712;SDS011;67640;55.784;49.138;2024-02-16T14:32:35;6.47;;;1.87;;
67712;SDS011;67640;55.784;49.138;2024-02-16T14:37:41;4.40;;;1.45;;
67712;SDS011;67640;55.784;49.138;2024-02-16T14:42:47;9.68;;;2.58;;
67712;SDS011;67640;55.784;49.138;2024-02-16T14:48:07;8.28;;;2.45;;
67712;SDS011;67640;55.784;49.138;2024-02-16T14:53:13;7.20;;;2.23;;
67712;SDS011;67640;55.784;49.138;2024-02-16T14:58:20;7.87;;;1.70;;
67712;SDS011;67640;55.784;49.138;2024-02-16T15:03:39;6.23;;;1.20;;
67712;SDS011;67640;55.784;49.138;2024-02-16T15:09:04;3.83;;;1.37;;
67712;SDS011;67640;55.784;49.138;2024-02-16T15:14:28;7.00;;;2.12;;
67712;SDS011;67640;55.784;49.138;2024-02-16T15:19:48;5.90;;;1.63;;
67712;SDS011;67640;55.784;49.138;2024-02-16T15:25:08;3.50;;;1.65;;
67712;SDS011;67640;55.784;49.138;2024-02-16T15:30:28;4.97;;;1.97;;
67712;SDS011;67640;55.784;49.138;2024-02-16T15:35:47;6.50;;;2.65;;
67712;SDS011;67640;55.784;49.138;2024-02-16T15:40:53;3.50;;;1.35;;
67712;SDS011;67640;55.784;49.138;2024-02-16T15:45:59;3.93;;;0.90;;
67712;SDS011;67640;55.784;49.138;2024-02-16T15:51:17;2.83;;;0.80;;
67712;SDS011;67640;55.784;49.138;2024-02-16T15:56:23;3.20;;;1.20;;
67712;SDS011;67640;55.784;49.138;2024-02-16T16:01:44;3.12;;;1.22;;
67712;SDS011;67640;55.784;49.138;2024-02-16T16:06:50;7.07;;;1.80;;
67712;SDS011;67640;55.784;49.138;2024-02-16T16:12:09;3.20;;;1.30;;
67712;SDS011;67640;55.784;49.138;2024-02-16T16:17:29;19.80;;;2.00;;
67712;SDS011;67640;55.784;49.138;2024-02-16T16:22:59;3.47;;;1.10;;
67712;SDS011;67640;55.784;49.138;2024-02-16T16:28:05;3.60;;;1.02;;
67712;SDS011;67640;55.784;49.138;2024-02-16T16:33:12;4.00;;;1.27;;
67712;SDS011;67640;55.784;49.138;2024-02-16T16:38:20;3.75;;;1.52;;
67712;SDS011;67640;55.784;49.138;2024-02-16T16:43:39;2.25;;;0.88;;
67712;SDS011;67640;55.784;49.138;2024-02-16T16:48:45;3.72;;;1.07;;
67712;SDS011;67640;55.784;49.138;2024-02-16T16:53:50;2.23;;;0.60;;
67712;SDS011;67640;55.784;49.138;2024-02-16T16:59:05;5.83;;;1.37;;
67712;SDS011;67640;55.784;49.138;2024-02-16T17:04:25;5.77;;;1.77;;
67712;SDS011;67640;55.784;49.138;2024-02-16T17:09:43;1.93;;;1.00;;
67712;SDS011;67640;55.784;49.138;2024-02-16T17:14:49;3.27;;;1.30;;
67712;SDS011;67640;55.784;49.138;2024-02-16T17:19:55;3.80;;;1.42;;
67712;SDS011;67640;55.784;49.138;2024-02-16T17:25:15;3.45;;;1.07;;
67712;SDS011;67640;55.784;49.138;2024-02-16T17:30:34;3.25;;;0.90;;
67712;SDS011;67640;55.784;49.138;2024-02-16T17:35:54;4.43;;;0.80;;
67712;SDS011;67640;55.784;49.138;2024-02-16T17:40:59;2.83;;;0.80;;
67712;SDS011;67640;55.784;49.138;2024-02-16T17:46:05;2.33;;;1.00;;
67712;SDS011;67640;55.784;49.138;2024-02-16T17:51:12;6.22;;;1.00;;
67712;SDS011;67640;55.784;49.138;2024-02-16T17:56:32;3.60;;;0.80;;
67712;SDS011;67640;55.784;49.138;2024-02-16T18:01:38;1.70;;;0.55;;
67712;SDS011;67640;55.784;49.138;2024-02-16T18:06:44;3.63;;;0.90;;
67712;SDS011;67640;55.784;49.138;2024-02-16T18:12:23;0.98;;;0.40;;
67712;SDS011;67640;55.784;49.138;2024-02-16T18:17:43;1.87;;;0.83;;
67712;SDS011;67640;55.784;49.138;2024-02-16T18:23:03;3.20;;;0.73;;
67712;SDS011;67640;55.784;49.138;2024-02-16T18:28:09;1.62;;;0.37;;
67712;SDS011;67640;55.784;49.138;2024-02-16T18:33:31;4.15;;;1.00;;
67712;SDS011;67640;55.784;49.138;2024-02-16T18:38:50;1.60;;;0.65;;
67712;SDS011;67640;55.784;49.138;2024-02-16T18:44:11;3.65;;;0.95;;
67712;SDS011;67640;55.784;49.138;2024-02-16T18:49:31;2.47;;;0.83;;
67712;SDS011;67640;55.784;49.138;2024-02-16T18:54:37;4.35;;;0.93;;
67712;SDS011;67640;55.784;49.138;2024-02-16T18:59:59;2.25;;;0.82;;
67712;SDS011;67640;55.784;49.138;2024-02-16T19:05:04;4.17;;;0.87;;
67712;SDS011;67640;55.784;49.138;2024-02-16T19:10:43;1.15;;;0.40;;
67712;SDS011;67640;55.784;49.138;2024-02-16T19:15:48;2.67;;;1.07;;
67712;SDS011;67640;55.784;49.138;2024-02-16T19:21:08;2.67;;;0.60;;
67712;SDS011;67640;55.784;49.138;2024-02-16T19:26:28;2.92;;;0.62;;
67712;SDS011;67640;55.784;49.138;2024-02-16T19:31:48;4.00;;;0.90;;
67712;SDS011;67640;55.784;49.138;2024-02-16T19:36:54;3.40;;;0.88;;
67712;SDS011;67640;55.784;49.138;2024-02-16T19:42:00;1.90;;;0.40;;
67712;SDS011;67640;55.784;49.138;2024-02-16T19:47:18;9.13;;;0.80;;
67712;SDS011;67640;55.784;49.138;2024-02-16T19:52:23;2.58;;;0.53;;
67712;SDS011;67640;55.784;49.138;2024-02-16T19:57:29;2.20;;;0.90;;
67712;SDS011;67640;55.784;49.138;2024-02-16T20:02:44;3.10;;;0.67;;
67712;SDS011;67640;55.784;49.138;2024-02-16T20:08:04;2.50;;;1.30;;
67712;SDS011;67640;55.784;49.138;2024-02-16T20:13:24;2.80;;;0.88;;
67712;SDS011;67640;55.784;49.138;2024-02-16T20:18:30;4.57;;;1.03;;
67712;SDS011;67640;55.784;49.138;2024-02-16T20:23:35;1.75;;;0.42;;
67712;SDS011;67640;55.784;49.138;2024-02-16T20:28:53;4.33;;;1.17;;
67712;SDS011;67640;55.784;49.138;2024-02-16T20:33:58;6.47;;;1.37;;
67712;SDS011;67640;55.784;49.138;2024-02-16T20:39:06;5.28;;;1.35;;
67712;SDS011;67640;55.784;49.138;2024-02-16T20:44:25;2.90;;;1.10;;
67712;SDS011;67640;55.784;49.138;2024-02-16T20:49:50;1.43;;;0.40;;
67712;SDS011;67640;55.784;49.138;2024-02-16T20:55:10;3.17;;;1.25;;
67712;SDS011;67640;55.784;49.138;2024-02-16T21:00:16;2.60;;;1.00;;
67712;SDS011;67640;55.784;49.138;2024-02-16T21:05:35;4.60;;;1.47;;
67712;SDS011;67640;55.784;49.138;2024-02-16T21:10:41;3.70;;;1.02;;
67712;SDS011;67640;55.784;49.138;2024-02-16T21:16:01;5.60;;;0.95;;
67712;SDS011;67640;55.784;49.138;2024-02-16T21:21:21;4.70;;;1.23;;
67712;SDS011;67640;55.784;49.138;2024-02-16T21:26:40;5.80;;;1.25;;
67712;SDS011;67640;55.784;49.138;2024-02-16T21:32:00;5.97;;;1.60;;
67712;SDS011;67640;55.784;49.138;2024-02-16T21:37:05;1.37;;;0.57;;
67712;SDS011;67640;55.784;49.138;2024-02-16T21:42:11;3.08;;;0.62;;
67712;SDS011;67640;55.784;49.138;2024-02-16T21:47:18;1.43;;;0.53;;
67712;SDS011;67640;55.784;49.138;2024-02-16T21:52:36;2.70;;;0.75;;
67712;SDS011;67640;55.784;49.138;2024-02-16T21:57:42;4.53;;;1.12;;
67712;SDS011;67640;55.784;49.138;2024-02-16T22:02:48;4.03;;;1.07;;
67712;SDS011;67640;55.784;49.138;2024-02-16T22:07:58;2.15;;;0.80;;
67712;SDS011;67640;55.784;49.138;2024-02-16T22:13:18;3.95;;;0.75;;
67712;SDS011;67640;55.784;49.138;2024-02-16T22:18:24;3.57;;;0.97;;
67712;SDS011;67640;55.784;49.138;2024-02-16T22:23:44;1.67;;;0.62;;
67712;SDS011;67640;55.784;49.138;2024-02-16T22:29:04;1.98;;;0.82;;
67712;SDS011;67640;55.784;49.138;2024-02-16T22:34:23;3.27;;;0.90;;
67712;SDS011;67640;55.784;49.138;2024-02-16T22:39:43;7.67;;;1.30;;
67712;SDS011;67640;55.784;49.138;2024-02-16T22:44:49;2.40;;;0.67;;
67712;SDS011;67640;55.784;49.138;2024-02-16T22:50:08;3.63;;;1.40;;
67712;SDS011;67640;55.784;49.138;2024-02-16T22:55:14;2.83;;;0.60;;
67712;SDS011;67640;55.784;49.138;2024-02-16T23:00:33;3.20;;;1.00;;
67712;SDS011;67640;55.784;49.138;2024-02-16T23:05:40;3.67;;;0.97;;
67712;SDS011;67640;55.784;49.138;2024-02-16T23:10:46;3.05;;;0.78;;
67712;SDS011;67640;55.784;49.138;2024-02-16T23:16:05;4.03;;;1.27;;
67712;SDS011;67640;55.784;49.138;2024-02-16T23:21:25;4.10;;;1.00;;
67712;SDS011;67640;55.784;49.138;2024-02-16T23:26:45;4.70;;;1.10;;
67712;SDS011;67640;55.784;49.138;2024-02-16T23:31:51;4.80;;;0.80;;
67712;SDS011;67640;55.784;49.138;2024-02-16T23:36:56;2.02;;;0.57;;
67712;SDS011;67640;55.784;49.138;2024-02-16T23:42:14;2.27;;;0.68;;
67712;SDS011;67640;55.784;49.138;2024-02-16T23:47:19;3.75;;;1.02;;
67712;SDS011;67640;55.784;49.138;2024-02-16T23:52:39;4.00;;;1.40;;
67712;SDS011;67640;55.784;49.138;2024-02-16T23:57:59;4.72;;;1.20;;
